sensor_id;sensor_type;location;lat;lon;timestamp;P1;durP1;ratioP1;P2;durP2;ratioP2
40290;SDS011;26000;48.304;13.626;2023-04-06T00:01:38;13.68;;;9.52;;
40290;SDS011;26000;48.304;13.626;2023-04-06T00:04:04;15.63;;;10.05;;
40290;SDS011;26000;48.304;13.626;2023-04-06T00:06:30;14.50;;;9.75;;
40290;SDS011;26000;48.304;13.626;2023-04-06T00:08:57;13.85;;;10.30;;
40290;SDS011;26000;48.304;13.626;2023-04-06T00:11:23;16.15;;;10.32;;
40290;SDS011;26000;48.304;13.626;2023-04-06T00:13:48;15.77;;;9.40;;
40290;SDS011;26000;48.304;13.626;2023-04-06T00:16:14;15.18;;;9.55;;
40290;SDS011;26000;48.304;13.626;2023-04-06T00:18:40;15.23;;;9.73;;
40290;SDS011;26000;48.304;13.626;2023-04-06T00:21:06;14.63;;;9.82;;
40290;SDS011;26000;48.304;13.626;2023-04-06T00:23:32;13.90;;;10.57;;
40290;SDS011;26000;48.304;13.626;2023-04-06T00:25:57;12.35;;;9.63;;
40290;SDS011;26000;48.304;13.626;2023-04-06T00:28:23;14.25;;;9.77;;
40290;SDS011;26000;48.304;13.626;2023-04-06T00:30:51;14.77;;;10.43;;
40290;SDS011;26000;48.304;13.626;2023-04-06T00:33:19;16.10;;;10.38;;
40290;SDS011;26000;48.304;13.626;2023-04-06T00:35:45;15.23;;;11.00;;
40290;SDS011;26000;48.304;13.626;2023-04-06T00:38:11;15.80;;;11.32;;
40290;SDS011;26000;48.304;13.626;2023-04-06T00:40:37;15.90;;;10.23;;
40290;SDS011;26000;48.304;13.626;2023-04-06T00:43:05;13.93;;;9.88;;
40290;SDS011;26000;48.304;13.626;2023-04-06T00:45:31;16.90;;;9.63;;
40290;SDS011;26000;48.304;13.626;2023-04-06T00:47:57;11.88;;;9.05;;
40290;SDS011;26000;48.304;13.626;2023-04-06T00:50:23;13.02;;;8.70;;
40290;SDS011;26000;48.304;13.626;2023-04-06T00:52:48;16.17;;;9.38;;
40290;SDS011;26000;48.304;13.626;2023-04-06T00:55:14;11.73;;;8.93;;
40290;SDS011;26000;48.304;13.626;2023-04-06T00:57:40;15.85;;;9.63;;
40290;SDS011;26000;48.304;13.626;2023-04-06T01:00:06;14.85;;;8.95;;
40290;SDS011;26000;48.304;13.626;2023-04-06T01:02:32;16.45;;;9.60;;
40290;SDS011;26000;48.304;13.626;2023-04-06T01:04:58;14.02;;;9.27;;
40290;SDS011;26000;48.304;13.626;2023-04-06T01:07:23;14.98;;;9.48;;
40290;SDS011;26000;48.304;13.626;2023-04-06T01:09:49;11.02;;;8.38;;
40290;SDS011;26000;48.304;13.626;2023-04-06T01:12:17;13.07;;;8.38;;
40290;SDS011;26000;48.304;13.626;2023-04-06T01:14:43;14.02;;;8.38;;
40290;SDS011;26000;48.304;13.626;2023-04-06T01:17:09;11.43;;;8.80;;
40290;SDS011;26000;48.304;13.626;2023-04-06T01:19:35;12.40;;;8.93;;
40290;SDS011;26000;48.304;13.626;2023-04-06T01:22:01;11.40;;;8.15;;
40290;SDS011;26000;48.304;13.626;2023-04-06T01:24:27;14.07;;;8.63;;
40290;SDS011;26000;48.304;13.626;2023-04-06T01:26:53;13.88;;;8.30;;
40290;SDS011;26000;48.304;13.626;2023-04-06T01:29:18;11.82;;;8.75;;
40290;SDS011;26000;48.304;13.626;2023-04-06T01:31:44;11.88;;;8.20;;
40290;SDS011;26000;48.304;13.626;2023-04-06T01:34:10;11.60;;;8.48;;
40290;SDS011;26000;48.304;13.626;2023-04-06T01:36:35;13.38;;;8.98;;
40290;SDS011;26000;48.304;13.626;2023-04-06T01:39:01;12.57;;;9.18;;
40290;SDS011;26000;48.304;13.626;2023-04-06T01:41:27;10.45;;;8.57;;
40290;SDS011;26000;48.304;13.626;2023-04-06T01:43:52;11.10;;;8.70;;
40290;SDS011;26000;48.304;13.626;2023-04-06T01:46:19;13.70;;;8.95;;
40290;SDS011;26000;48.304;13.626;2023-04-06T01:48:45;14.95;;;9.02;;
40290;SDS011;26000;48.304;13.626;2023-04-06T01:51:11;11.73;;;9.05;;
40290;SDS011;26000;48.304;13.626;2023-04-06T01:53:36;13.95;;;9.48;;
40290;SDS011;26000;48.304;13.626;2023-04-06T01:56:02;11.65;;;8.55;;
40290;SDS011;26000;48.304;13.626;2023-04-06T01:58:28;14.48;;;8.38;;
40290;SDS011;26000;48.304;13.626;2023-04-06T02:00:53;11.38;;;8.25;;
40290;SDS011;26000;48.304;13.626;2023-04-06T02:03:19;11.88;;;8.38;;
40290;SDS011;26000;48.304;13.626;2023-04-06T02:05:45;12.40;;;8.30;;
40290;SDS011;26000;48.304;13.626;2023-04-06T02:08:10;10.98;;;8.07;;
40290;SDS011;26000;48.304;13.626;2023-04-06T02:10:36;11.23;;;7.65;;
40290;SDS011;26000;48.304;13.626;2023-04-06T02:13:02;12.52;;;8.27;;
40290;SDS011;26000;48.304;13.626;2023-04-06T02:15:27;12.00;;;8.68;;
40290;SDS011;26000;48.304;13.626;2023-04-06T02:17:53;10.63;;;7.93;;
40290;SDS011;26000;48.304;13.626;2023-04-06T02:20:19;12.68;;;8.23;;
40290;SDS011;26000;48.304;13.626;2023-04-06T02:22:45;11.38;;;8.40;;
40290;SDS011;26000;48.304;13.626;2023-04-06T02:25:11;11.45;;;8.52;;
40290;SDS011;26000;48.304;13.626;2023-04-06T02:27:36;12.98;;;9.18;;
40290;SDS011;26000;48.304;13.626;2023-04-06T02:30:03;13.40;;;9.38;;
40290;SDS011;26000;48.304;13.626;2023-04-06T02:32:29;12.25;;;8.50;;
40290;SDS011;26000;48.304;13.626;2023-04-06T02:34:55;12.63;;;8.85;;
40290;SDS011;26000;48.304;13.626;2023-04-06T02:37:21;13.38;;;8.40;;
40290;SDS011;26000;48.304;13.626;2023-04-06T02:39:48;13.90;;;8.98;;
40290;SDS011;26000;48.304;13.626;2023-04-06T02:42:13;11.75;;;8.60;;
40290;SDS011;26000;48.304;13.626;2023-04-06T02:44:40;12.02;;;8.80;;
40290;SDS011;26000;48.304;13.626;2023-04-06T02:47:06;12.23;;;8.57;;
40290;SDS011;26000;48.304;13.626;2023-04-06T02:49:32;12.57;;;9.13;;
40290;SDS011;26000;48.304;13.626;2023-04-06T02:51:58;14.82;;;8.52;;
40290;SDS011;26000;48.304;13.626;2023-04-06T02:54:23;11.23;;;8.40;;
40290;SDS011;26000;48.304;13.626;2023-04-06T02:56:49;14.48;;;8.82;;
40290;SDS011;26000;48.304;13.626;2023-04-06T02:59:15;12.68;;;8.68;;
40290;SDS011;26000;48.304;13.626;2023-04-06T03:01:40;13.50;;;9.05;;
40290;SDS011;26000;48.304;13.626;2023-04-06T03:04:06;12.63;;;8.55;;
40290;SDS011;26000;48.304;13.626;2023-04-06T03:06:31;12.38;;;8.23;;
40290;SDS011;26000;48.304;13.626;2023-04-06T03:08:57;13.20;;;8.52;;
40290;SDS011;26000;48.304;13.626;2023-04-06T03:11:23;12.15;;;8.82;;
40290;SDS011;26000;48.304;13.626;2023-04-06T03:13:48;10.77;;;8.05;;
40290;SDS011;26000;48.304;13.626;2023-04-06T03:16:14;9.60;;;8.02;;
40290;SDS011;26000;48.304;13.626;2023-04-06T03:18:40;11.52;;;8.52;;
40290;SDS011;26000;48.304;13.626;2023-04-06T03:21:06;12.88;;;8.82;;
40290;SDS011;26000;48.304;13.626;2023-04-06T03:23:31;13.73;;;9.57;;
40290;SDS011;26000;48.304;13.626;2023-04-06T03:25:57;13.18;;;8.40;;
40290;SDS011;26000;48.304;13.626;2023-04-06T03:28:23;11.75;;;8.70;;
40290;SDS011;26000;48.304;13.626;2023-04-06T03:30:48;12.50;;;8.68;;
40290;SDS011;26000;48.304;13.626;2023-04-06T03:33:14;14.95;;;8.68;;
40290;SDS011;26000;48.304;13.626;2023-04-06T03:35:40;12.00;;;8.88;;
40290;SDS011;26000;48.304;13.626;2023-04-06T03:38:05;13.38;;;9.32;;
40290;SDS011;26000;48.304;13.626;2023-04-06T03:40:31;12.05;;;9.00;;
40290;SDS011;26000;48.304;13.626;2023-04-06T03:42:57;11.77;;;8.30;;
40290;SDS011;26000;48.304;13.626;2023-04-06T03:45:22;14.98;;;9.02;;
40290;SDS011;26000;48.304;13.626;2023-04-06T03:47:48;17.08;;;8.70;;
40290;SDS011;26000;48.304;13.626;2023-04-06T03:50:14;12.55;;;8.88;;
40290;SDS011;26000;48.304;13.626;2023-04-06T03:52:40;17.67;;;10.00;;
40290;SDS011;26000;48.304;13.626;2023-04-06T03:55:06;13.68;;;9.32;;
40290;SDS011;26000;48.304;13.626;2023-04-06T03:57:32;13.45;;;9.60;;
40290;SDS011;26000;48.304;13.626;2023-04-06T03:59:58;13.30;;;9.82;;
40290;SDS011;26000;48.304;13.626;2023-04-06T04:02:23;13.15;;;9.35;;
40290;SDS011;26000;48.304;13.626;2023-04-06T04:04:49;12.48;;;9.20;;
40290;SDS011;26000;48.304;13.626;2023-04-06T04:07:15;14.50;;;9.50;;
40290;SDS011;26000;48.304;13.626;2023-04-06T04:09:40;14.20;;;9.57;;
40290;SDS011;26000;48.304;13.626;2023-04-06T04:12:06;15.88;;;9.48;;
40290;SDS011;26000;48.304;13.626;2023-04-06T04:14:32;13.07;;;8.98;;
40290;SDS011;26000;48.304;13.626;2023-04-06T04:16:57;16.25;;;10.15;;
40290;SDS011;26000;48.304;13.626;2023-04-06T04:19:23;14.18;;;9.68;;
40290;SDS011;26000;48.304;13.626;2023-04-06T04:21:49;14.27;;;9.73;;
40290;SDS011;26000;48.304;13.626;2023-04-06T04:24:14;15.82;;;9.43;;
40290;SDS011;26000;48.304;13.626;2023-04-06T04:26:40;17.27;;;10.05;;
40290;SDS011;26000;48.304;13.626;2023-04-06T04:29:06;17.65;;;10.10;;
40290;SDS011;26000;48.304;13.626;2023-04-06T04:31:32;15.20;;;9.93;;
40290;SDS011;26000;48.304;13.626;2023-04-06T04:33:59;16.73;;;9.95;;
40290;SDS011;26000;48.304;13.626;2023-04-06T04:36:25;14.43;;;9.98;;
40290;SDS011;26000;48.304;13.626;2023-04-06T04:38:51;18.42;;;10.52;;
40290;SDS011;26000;48.304;13.626;2023-04-06T04:41:17;17.15;;;9.52;;
40290;SDS011;26000;48.304;13.626;2023-04-06T04:43:43;17.08;;;11.52;;
40290;SDS011;26000;48.304;13.626;2023-04-06T04:46:09;22.00;;;11.82;;
40290;SDS011;26000;48.304;13.626;2023-04-06T04:48:35;26.90;;;13.20;;
40290;SDS011;26000;48.304;13.626;2023-04-06T04:51:01;28.23;;;13.88;;
40290;SDS011;26000;48.304;13.626;2023-04-06T04:53:27;27.38;;;13.60;;
40290;SDS011;26000;48.304;13.626;2023-04-06T04:55:52;24.77;;;13.35;;
40290;SDS011;26000;48.304;13.626;2023-04-06T04:58:18;21.25;;;12.63;;
40290;SDS011;26000;48.304;13.626;2023-04-06T05:00:45;29.10;;;13.95;;
40290;SDS011;26000;48.304;13.626;2023-04-06T05:03:17;19.52;;;12.02;;
40290;SDS011;26000;48.304;13.626;2023-04-06T05:05:46;24.70;;;13.00;;
40290;SDS011;26000;48.304;13.626;2023-04-06T05:08:12;22.92;;;12.15;;
40290;SDS011;26000;48.304;13.626;2023-04-06T05:10:37;17.20;;;10.68;;
40290;SDS011;26000;48.304;13.626;2023-04-06T05:13:03;19.02;;;10.40;;
40290;SDS011;26000;48.304;13.626;2023-04-06T05:15:29;15.70;;;10.05;;
40290;SDS011;26000;48.304;13.626;2023-04-06T05:17:55;17.95;;;9.85;;
40290;SDS011;26000;48.304;13.626;2023-04-06T05:20:20;18.15;;;10.90;;
40290;SDS011;26000;48.304;13.626;2023-04-06T05:22:46;15.98;;;9.68;;
40290;SDS011;26000;48.304;13.626;2023-04-06T05:25:12;14.20;;;9.13;;
40290;SDS011;26000;48.304;13.626;2023-04-06T05:27:38;17.45;;;9.52;;
40290;SDS011;26000;48.304;13.626;2023-04-06T05:30:05;13.88;;;9.57;;
40290;SDS011;26000;48.304;13.626;2023-04-06T05:32:32;14.75;;;9.35;;
40290;SDS011;26000;48.304;13.626;2023-04-06T05:34:57;16.50;;;9.88;;
40290;SDS011;26000;48.304;13.626;2023-04-06T05:37:23;14.95;;;10.38;;
40290;SDS011;26000;48.304;13.626;2023-04-06T05:39:49;17.77;;;12.27;;
40290;SDS011;26000;48.304;13.626;2023-04-06T05:42:15;17.92;;;12.40;;
40290;SDS011;26000;48.304;13.626;2023-04-06T05:44:41;18.25;;;10.88;;
40290;SDS011;26000;48.304;13.626;2023-04-06T05:47:07;17.42;;;10.68;;
40290;SDS011;26000;48.304;13.626;2023-04-06T05:49:33;14.15;;;9.93;;
40290;SDS011;26000;48.304;13.626;2023-04-06T05:51:59;15.82;;;10.50;;
40290;SDS011;26000;48.304;13.626;2023-04-06T05:54:25;17.73;;;10.15;;
40290;SDS011;26000;48.304;13.626;2023-04-06T05:56:51;16.67;;;11.07;;
40290;SDS011;26000;48.304;13.626;2023-04-06T05:59:16;24.45;;;13.85;;
40290;SDS011;26000;48.304;13.626;2023-04-06T06:01:42;23.00;;;13.52;;
40290;SDS011;26000;48.304;13.626;2023-04-06T06:04:08;17.90;;;11.95;;
40290;SDS011;26000;48.304;13.626;2023-04-06T06:06:33;20.70;;;11.88;;
40290;SDS011;26000;48.304;13.626;2023-04-06T06:09:00;21.50;;;12.73;;
40290;SDS011;26000;48.304;13.626;2023-04-06T06:11:26;20.63;;;12.57;;
40290;SDS011;26000;48.304;13.626;2023-04-06T06:13:52;20.70;;;12.07;;
40290;SDS011;26000;48.304;13.626;2023-04-06T06:16:18;16.08;;;11.35;;
40290;SDS011;26000;48.304;13.626;2023-04-06T06:18:44;19.92;;;11.88;;
40290;SDS011;26000;48.304;13.626;2023-04-06T06:21:09;23.95;;;11.90;;
40290;SDS011;26000;48.304;13.626;2023-04-06T06:23:37;18.70;;;11.35;;
40290;SDS011;26000;48.304;13.626;2023-04-06T06:26:03;15.27;;;11.50;;
40290;SDS011;26000;48.304;13.626;2023-04-06T06:28:29;17.17;;;11.30;;
40290;SDS011;26000;48.304;13.626;2023-04-06T06:30:55;15.27;;;10.63;;
40290;SDS011;26000;48.304;13.626;2023-04-06T06:33:20;17.15;;;11.10;;
40290;SDS011;26000;48.304;13.626;2023-04-06T06:35:46;16.88;;;9.88;;
40290;SDS011;26000;48.304;13.626;2023-04-06T06:38:12;15.30;;;10.63;;
40290;SDS011;26000;48.304;13.626;2023-04-06T06:40:38;15.48;;;9.80;;
40290;SDS011;26000;48.304;13.626;2023-04-06T06:43:04;18.40;;;10.73;;
40290;SDS011;26000;48.304;13.626;2023-04-06T06:45:30;14.63;;;10.00;;
40290;SDS011;26000;48.304;13.626;2023-04-06T06:47:56;17.45;;;11.43;;
40290;SDS011;26000;48.304;13.626;2023-04-06T06:50:21;17.60;;;10.52;;
40290;SDS011;26000;48.304;13.626;2023-04-06T06:52:47;16.33;;;11.48;;
40290;SDS011;26000;48.304;13.626;2023-04-06T06:55:13;14.70;;;10.35;;
40290;SDS011;26000;48.304;13.626;2023-04-06T06:57:38;17.45;;;10.80;;
40290;SDS011;26000;48.304;13.626;2023-04-06T07:00:05;18.60;;;10.68;;
40290;SDS011;26000;48.304;13.626;2023-04-06T07:02:33;14.00;;;10.02;;
40290;SDS011;26000;48.304;13.626;2023-04-06T07:05:02;15.98;;;10.43;;
40290;SDS011;26000;48.304;13.626;2023-04-06T07:07:28;10.63;;;7.47;;
40290;SDS011;26000;48.304;13.626;2023-04-06T07:09:54;10.32;;;6.78;;
40290;SDS011;26000;48.304;13.626;2023-04-06T07:12:19;11.15;;;7.35;;
40290;SDS011;26000;48.304;13.626;2023-04-06T07:14:45;12.18;;;7.97;;
40290;SDS011;26000;48.304;13.626;2023-04-06T07:17:11;12.73;;;8.20;;
40290;SDS011;26000;48.304;13.626;2023-04-06T07:19:36;11.95;;;7.88;;
40290;SDS011;26000;48.304;13.626;2023-04-06T07:22:02;11.55;;;8.65;;
40290;SDS011;26000;48.304;13.626;2023-04-06T07:24:28;16.38;;;10.50;;
40290;SDS011;26000;48.304;13.626;2023-04-06T07:26:54;12.98;;;7.88;;
40290;SDS011;26000;48.304;13.626;2023-04-06T07:29:20;12.85;;;7.97;;
40290;SDS011;26000;48.304;13.626;2023-04-06T07:31:46;12.90;;;7.57;;
40290;SDS011;26000;48.304;13.626;2023-04-06T07:34:11;9.27;;;7.15;;
40290;SDS011;26000;48.304;13.626;2023-04-06T07:36:37;9.25;;;7.38;;
40290;SDS011;26000;48.304;13.626;2023-04-06T07:39:03;13.15;;;7.68;;
40290;SDS011;26000;48.304;13.626;2023-04-06T07:41:28;15.13;;;7.80;;
40290;SDS011;26000;48.304;13.626;2023-04-06T07:43:54;12.57;;;7.60;;
40290;SDS011;26000;48.304;13.626;2023-04-06T07:46:20;10.88;;;7.60;;
40290;SDS011;26000;48.304;13.626;2023-04-06T07:48:46;14.00;;;7.72;;
40290;SDS011;26000;48.304;13.626;2023-04-06T07:51:11;12.43;;;7.35;;
40290;SDS011;26000;48.304;13.626;2023-04-06T07:53:39;13.73;;;8.23;;
40290;SDS011;26000;48.304;13.626;2023-04-06T07:56:05;12.15;;;8.10;;
40290;SDS011;26000;48.304;13.626;2023-04-06T07:58:31;11.88;;;7.25;;
40290;SDS011;26000;48.304;13.626;2023-04-06T08:00:57;10.57;;;7.22;;
40290;SDS011;26000;48.304;13.626;2023-04-06T08:03:23;11.07;;;6.93;;
40290;SDS011;26000;48.304;13.626;2023-04-06T08:05:50;10.13;;;6.15;;
40290;SDS011;26000;48.304;13.626;2023-04-06T08:08:20;9.35;;;6.70;;
40290;SDS011;26000;48.304;13.626;2023-04-06T08:10:46;8.43;;;6.38;;
40290;SDS011;26000;48.304;13.626;2023-04-06T08:13:13;12.82;;;6.10;;
40290;SDS011;26000;48.304;13.626;2023-04-06T08:15:39;11.25;;;6.10;;
40290;SDS011;26000;48.304;13.626;2023-04-06T08:18:05;10.05;;;6.50;;
40290;SDS011;26000;48.304;13.626;2023-04-06T08:20:31;9.57;;;6.22;;
40290;SDS011;26000;48.304;13.626;2023-04-06T08:22:56;13.02;;;6.53;;
40290;SDS011;26000;48.304;13.626;2023-04-06T08:25:22;12.50;;;7.38;;
40290;SDS011;26000;48.304;13.626;2023-04-06T08:27:47;8.85;;;6.35;;
40290;SDS011;26000;48.304;13.626;2023-04-06T08:30:13;9.40;;;7.13;;
40290;SDS011;26000;48.304;13.626;2023-04-06T08:32:40;9.07;;;6.93;;
40290;SDS011;26000;48.304;13.626;2023-04-06T08:35:07;9.88;;;6.80;;
40290;SDS011;26000;48.304;13.626;2023-04-06T08:37:33;11.07;;;6.45;;
40290;SDS011;26000;48.304;13.626;2023-04-06T08:39:58;11.38;;;7.07;;
40290;SDS011;26000;48.304;13.626;2023-04-06T08:42:25;10.07;;;6.53;;
40290;SDS011;26000;48.304;13.626;2023-04-06T08:44:53;9.75;;;6.50;;
40290;SDS011;26000;48.304;13.626;2023-04-06T08:47:20;8.85;;;6.25;;
40290;SDS011;26000;48.304;13.626;2023-04-06T08:49:46;8.05;;;6.13;;
40290;SDS011;26000;48.304;13.626;2023-04-06T08:52:12;8.45;;;6.00;;
40290;SDS011;26000;48.304;13.626;2023-04-06T08:54:39;8.85;;;6.00;;
40290;SDS011;26000;48.304;13.626;2023-04-06T08:57:05;9.93;;;6.03;;
40290;SDS011;26000;48.304;13.626;2023-04-06T08:59:33;8.77;;;6.18;;
40290;SDS011;26000;48.304;13.626;2023-04-06T09:01:59;9.73;;;6.22;;
40290;SDS011;26000;48.304;13.626;2023-04-06T09:04:28;11.40;;;6.25;;
40290;SDS011;26000;48.304;13.626;2023-04-06T09:06:53;8.50;;;6.07;;
40290;SDS011;26000;48.304;13.626;2023-04-06T09:09:19;9.80;;;6.22;;
40290;SDS011;26000;48.304;13.626;2023-04-06T09:11:46;8.73;;;6.07;;
40290;SDS011;26000;48.304;13.626;2023-04-06T09:14:15;9.35;;;5.78;;
40290;SDS011;26000;48.304;13.626;2023-04-06T09:16:42;8.15;;;5.85;;
40290;SDS011;26000;48.304;13.626;2023-04-06T09:19:10;12.35;;;5.88;;
40290;SDS011;26000;48.304;13.626;2023-04-06T09:21:37;8.75;;;6.45;;
40290;SDS011;26000;48.304;13.626;2023-04-06T09:24:05;9.13;;;5.70;;
40290;SDS011;26000;48.304;13.626;2023-04-06T09:26:32;9.20;;;6.38;;
40290;SDS011;26000;48.304;13.626;2023-04-06T09:29:08;9.15;;;6.20;;
40290;SDS011;26000;48.304;13.626;2023-04-06T09:31:34;9.90;;;6.63;;
40290;SDS011;26000;48.304;13.626;2023-04-06T09:34:00;7.07;;;6.00;;
40290;SDS011;26000;48.304;13.626;2023-04-06T09:36:33;8.43;;;6.13;;
40290;SDS011;26000;48.304;13.626;2023-04-06T09:39:03;8.70;;;6.13;;
40290;SDS011;26000;48.304;13.626;2023-04-06T09:41:30;8.38;;;6.13;;
40290;SDS011;26000;48.304;13.626;2023-04-06T09:46:33;10.00;;;6.40;;
40290;SDS011;26000;48.304;13.626;2023-04-06T09:49:01;12.20;;;6.82;;
40290;SDS011;26000;48.304;13.626;2023-04-06T09:51:28;7.97;;;5.55;;
40290;SDS011;26000;48.304;13.626;2023-04-06T09:53:56;8.73;;;6.50;;
40290;SDS011;26000;48.304;13.626;2023-04-06T09:56:30;9.05;;;6.38;;
40290;SDS011;26000;48.304;13.626;2023-04-06T09:59:02;9.23;;;6.55;;
40290;SDS011;26000;48.304;13.626;2023-04-06T10:01:32;9.00;;;6.82;;
40290;SDS011;26000;48.304;13.626;2023-04-06T10:04:09;9.48;;;6.93;;
40290;SDS011;26000;48.304;13.626;2023-04-06T10:06:46;10.35;;;6.90;;
40290;SDS011;26000;48.304;13.626;2023-04-06T10:09:17;8.90;;;6.68;;
40290;SDS011;26000;48.304;13.626;2023-04-06T10:11:47;7.38;;;6.10;;
40290;SDS011;26000;48.304;13.626;2023-04-06T10:14:14;9.32;;;6.30;;
40290;SDS011;26000;48.304;13.626;2023-04-06T10:16:40;9.00;;;6.78;;
40290;SDS011;26000;48.304;13.626;2023-04-06T10:19:13;9.18;;;6.63;;
40290;SDS011;26000;48.304;13.626;2023-04-06T10:21:44;8.45;;;6.35;;
40290;SDS011;26000;48.304;13.626;2023-04-06T10:24:13;7.57;;;6.10;;
40290;SDS011;26000;48.304;13.626;2023-04-06T10:26:39;11.57;;;7.00;;
40290;SDS011;26000;48.304;13.626;2023-04-06T10:29:05;9.65;;;6.90;;
40290;SDS011;26000;48.304;13.626;2023-04-06T10:31:31;9.75;;;6.80;;
40290;SDS011;26000;48.304;13.626;2023-04-06T10:34:00;9.40;;;6.72;;
40290;SDS011;26000;48.304;13.626;2023-04-06T10:36:28;11.35;;;7.72;;
40290;SDS011;26000;48.304;13.626;2023-04-06T10:39:01;9.48;;;7.47;;
40290;SDS011;26000;48.304;13.626;2023-04-06T10:41:32;9.40;;;7.50;;
40290;SDS011;26000;48.304;13.626;2023-04-06T10:44:06;10.23;;;6.95;;
40290;SDS011;26000;48.304;13.626;2023-04-06T10:46:32;11.15;;;7.32;;
40290;SDS011;26000;48.304;13.626;2023-04-06T10:48:58;10.40;;;7.35;;
40290;SDS011;26000;48.304;13.626;2023-04-06T10:51:37;9.73;;;7.40;;
40290;SDS011;26000;48.304;13.626;2023-04-06T10:54:03;8.30;;;7.03;;
40290;SDS011;26000;48.304;13.626;2023-04-06T10:56:30;11.27;;;7.25;;
40290;SDS011;26000;48.304;13.626;2023-04-06T10:58:59;8.70;;;7.32;;
40290;SDS011;26000;48.304;13.626;2023-04-06T11:01:25;9.70;;;7.40;;
40290;SDS011;26000;48.304;13.626;2023-04-06T11:03:54;9.60;;;7.35;;
40290;SDS011;26000;48.304;13.626;2023-04-06T11:06:29;8.75;;;7.50;;
40290;SDS011;26000;48.304;13.626;2023-04-06T11:08:57;8.90;;;6.67;;
40290;SDS011;26000;48.304;13.626;2023-04-06T11:11:23;11.32;;;6.95;;
40290;SDS011;26000;48.304;13.626;2023-04-06T11:16:22;10.63;;;6.40;;
40290;SDS011;26000;48.304;13.626;2023-04-06T11:21:16;9.20;;;6.75;;
40290;SDS011;26000;48.304;13.626;2023-04-06T11:23:43;8.48;;;6.63;;
40290;SDS011;26000;48.304;13.626;2023-04-06T11:26:12;8.13;;;6.57;;
40290;SDS011;26000;48.304;13.626;2023-04-06T11:28:42;9.02;;;7.28;;
40290;SDS011;26000;48.304;13.626;2023-04-06T11:31:08;8.88;;;7.05;;
40290;SDS011;26000;48.304;13.626;2023-04-06T11:33:38;7.78;;;6.40;;
40290;SDS011;26000;48.304;13.626;2023-04-06T11:36:04;10.38;;;6.72;;
40290;SDS011;26000;48.304;13.626;2023-04-06T11:38:31;10.80;;;7.32;;
40290;SDS011;26000;48.304;13.626;2023-04-06T11:40:57;8.43;;;6.60;;
40290;SDS011;26000;48.304;13.626;2023-04-06T11:43:46;11.35;;;7.57;;
40290;SDS011;26000;48.304;13.626;2023-04-06T11:46:16;9.20;;;7.60;;
40290;SDS011;26000;48.304;13.626;2023-04-06T11:48:44;10.07;;;7.68;;
40290;SDS011;26000;48.304;13.626;2023-04-06T11:51:10;8.60;;;7.03;;
40290;SDS011;26000;48.304;13.626;2023-04-06T11:53:43;10.02;;;7.65;;
40290;SDS011;26000;48.304;13.626;2023-04-06T11:56:22;9.98;;;6.75;;
40290;SDS011;26000;48.304;13.626;2023-04-06T11:58:53;8.38;;;7.18;;
40290;SDS011;26000;48.304;13.626;2023-04-06T12:01:20;9.90;;;6.88;;
40290;SDS011;26000;48.304;13.626;2023-04-06T12:03:46;8.38;;;7.18;;
40290;SDS011;26000;48.304;13.626;2023-04-06T12:06:12;9.90;;;7.65;;
40290;SDS011;26000;48.304;13.626;2023-04-06T12:08:38;12.02;;;9.35;;
40290;SDS011;26000;48.304;13.626;2023-04-06T12:11:04;10.60;;;7.82;;
40290;SDS011;26000;48.304;13.626;2023-04-06T12:13:30;11.60;;;9.27;;
40290;SDS011;26000;48.304;13.626;2023-04-06T12:15:56;13.10;;;7.72;;
40290;SDS011;26000;48.304;13.626;2023-04-06T12:18:21;10.40;;;7.90;;
40290;SDS011;26000;48.304;13.626;2023-04-06T12:20:47;9.23;;;7.95;;
40290;SDS011;26000;48.304;13.626;2023-04-06T12:23:13;13.20;;;9.70;;
40290;SDS011;26000;48.304;13.626;2023-04-06T12:25:39;13.75;;;10.40;;
40290;SDS011;26000;48.304;13.626;2023-04-06T12:28:06;9.82;;;7.80;;
40290;SDS011;26000;48.304;13.626;2023-04-06T12:30:31;11.57;;;8.75;;
40290;SDS011;26000;48.304;13.626;2023-04-06T12:32:57;10.35;;;8.13;;
40290;SDS011;26000;48.304;13.626;2023-04-06T12:35:23;9.02;;;8.10;;
40290;SDS011;26000;48.304;13.626;2023-04-06T12:37:48;9.60;;;7.63;;
40290;SDS011;26000;48.304;13.626;2023-04-06T12:40:14;10.45;;;8.40;;
40290;SDS011;26000;48.304;13.626;2023-04-06T12:42:40;13.70;;;10.25;;
40290;SDS011;26000;48.304;13.626;2023-04-06T12:45:07;11.25;;;8.32;;
40290;SDS011;26000;48.304;13.626;2023-04-06T12:47:33;9.13;;;7.63;;
40290;SDS011;26000;48.304;13.626;2023-04-06T12:50:00;9.65;;;7.38;;
40290;SDS011;26000;48.304;13.626;2023-04-06T12:52:26;33.30;;;21.05;;
40290;SDS011;26000;48.304;13.626;2023-04-06T12:54:55;12.15;;;8.98;;
40290;SDS011;26000;48.304;13.626;2023-04-06T12:57:21;10.90;;;8.43;;
40290;SDS011;26000;48.304;13.626;2023-04-06T12:59:47;12.52;;;8.50;;
40290;SDS011;26000;48.304;13.626;2023-04-06T13:02:12;10.27;;;7.82;;
40290;SDS011;26000;48.304;13.626;2023-04-06T13:04:38;12.23;;;8.60;;
40290;SDS011;26000;48.304;13.626;2023-04-06T13:07:04;11.85;;;8.25;;
40290;SDS011;26000;48.304;13.626;2023-04-06T13:09:30;13.02;;;8.82;;
40290;SDS011;26000;48.304;13.626;2023-04-06T13:11:55;10.52;;;8.77;;
40290;SDS011;26000;48.304;13.626;2023-04-06T13:14:22;14.57;;;8.85;;
40290;SDS011;26000;48.304;13.626;2023-04-06T13:16:48;10.43;;;8.38;;
40290;SDS011;26000;48.304;13.626;2023-04-06T13:19:14;11.63;;;7.18;;
40290;SDS011;26000;48.304;13.626;2023-04-06T13:21:40;11.00;;;8.60;;
40290;SDS011;26000;48.304;13.626;2023-04-06T13:24:06;10.27;;;7.93;;
40290;SDS011;26000;48.304;13.626;2023-04-06T13:26:31;11.25;;;8.27;;
40290;SDS011;26000;48.304;13.626;2023-04-06T13:28:57;10.52;;;7.32;;
40290;SDS011;26000;48.304;13.626;2023-04-06T13:31:25;8.70;;;7.57;;
40290;SDS011;26000;48.304;13.626;2023-04-06T13:33:51;8.77;;;7.57;;
40290;SDS011;26000;48.304;13.626;2023-04-06T13:36:16;18.48;;;8.25;;
40290;SDS011;26000;48.304;13.626;2023-04-06T13:38:42;8.77;;;7.50;;
40290;SDS011;26000;48.304;13.626;2023-04-06T13:41:08;10.15;;;7.80;;
40290;SDS011;26000;48.304;13.626;2023-04-06T13:43:33;12.20;;;8.45;;
40290;SDS011;26000;48.304;13.626;2023-04-06T13:45:59;11.93;;;7.95;;
40290;SDS011;26000;48.304;13.626;2023-04-06T13:48:26;13.40;;;8.75;;
40290;SDS011;26000;48.304;13.626;2023-04-06T13:50:51;11.63;;;8.80;;
40290;SDS011;26000;48.304;13.626;2023-04-06T13:53:17;12.07;;;8.57;;
40290;SDS011;26000;48.304;13.626;2023-04-06T13:55:43;8.60;;;7.50;;
40290;SDS011;26000;48.304;13.626;2023-04-06T13:58:09;10.23;;;7.88;;
40290;SDS011;26000;48.304;13.626;2023-04-06T14:00:35;10.65;;;8.07;;
40290;SDS011;26000;48.304;13.626;2023-04-06T14:03:01;10.18;;;8.25;;
40290;SDS011;26000;48.304;13.626;2023-04-06T14:05:30;11.77;;;8.90;;
40290;SDS011;26000;48.304;13.626;2023-04-06T14:07:59;8.70;;;7.55;;
40290;SDS011;26000;48.304;13.626;2023-04-06T14:10:25;9.43;;;7.15;;
40290;SDS011;26000;48.304;13.626;2023-04-06T14:12:52;9.55;;;8.25;;
40290;SDS011;26000;48.304;13.626;2023-04-06T14:15:18;9.90;;;7.80;;
40290;SDS011;26000;48.304;13.626;2023-04-06T14:17:44;9.90;;;8.57;;
40290;SDS011;26000;48.304;13.626;2023-04-06T14:20:10;9.32;;;8.38;;
40290;SDS011;26000;48.304;13.626;2023-04-06T14:22:39;10.40;;;7.63;;
40290;SDS011;26000;48.304;13.626;2023-04-06T14:25:06;11.20;;;7.45;;
40290;SDS011;26000;48.304;13.626;2023-04-06T14:27:32;10.43;;;7.65;;